Volcan De Tamasite — ECFE — position and weather

sailwx.info

Track history (hours):
 
Tides and Currents Weather Stations Pressure Air Temp Water Temp Dewpoint Dewpoint Depression Visibility Wind Speed Wind Dir Waves Ship Positions

Volcan De Tamasite

Last reported at 2015-Apr-01 08:33 UTC. Time now 2015-Apr-01 09:29 UTC.
Position N 28°05' W 014°57'.

Length 141 m; draft 5.4 m.

Type: Passenger vessel. MMSI: 224093000.

Date/timePositionNaut miles runAvg speedWind from/ knotsBaromVisibWave heightAir tempDewpointWater temp
2015-Apr-01 08:33N 28°05' W 014°57'1919.4
2015-Apr-01 07:33N 28°07' W 015°19'6 5.6
2015-Apr-01 06:34N 28°08' W 015°25'0 0.0
2015-Apr-01 05:33N 28°08' W 015°25'0 0.0
2015-Apr-01 04:33N 28°08' W 015°25'0 0.0
2015-Apr-01 03:33N 28°08' W 015°25'0 0.0
2015-Apr-01 02:33N 28°08' W 015°25'0 0.0
2015-Apr-01 01:33N 28°08' W 015°25'0 0.0
2015-Apr-01 00:33N 28°08' W 015°25'0 0.0
2015-Mar-31 23:33N 28°08' W 015°25'0 0.0
2015-Mar-31 22:34N 28°08' W 015°25'0 0.0
2015-Mar-31 21:33N 28°08' W 015°25'0 0.0
2015-Mar-31 20:34N 28°08' W 015°25'0 0.0
2015-Mar-31 19:34N 28°08' W 015°25'0 0.0
2015-Mar-31 18:33N 28°08' W 015°25'5 4.7
2015-Mar-31 17:33N 28°07' W 015°20'2020.1
2015-Mar-31 16:33N 28°05' W 014°57'2020.2
2015-Mar-31 15:33N 28°02' W 014°34'1111.2
2015-Mar-31 14:33N 28°03' W 014°22'0 0.0
2015-Mar-31 13:33N 28°03' W 014°22'0 0.0
2015-Mar-31 12:33N 28°03' W 014°22'0 0.0
2015-Mar-31 11:33N 28°03' W 014°22'0 0.0
2015-Mar-31 10:33N 28°03' W 014°22'10 9.6
2015-Mar-31 09:33N 28°02' W 014°33'1919.2
2015-Mar-31 08:34N 28°04' W 014°54'1919.0
2015-Mar-31 07:33N 28°06' W 015°16'8 8.3
2015-Mar-31 06:34N 28°08' W 015°25'0 0.0
2015-Mar-31 05:33N 28°08' W 015°25'0 0.0
2015-Mar-31 04:33N 28°08' W 015°25'0 0.0
2015-Mar-31 03:33N 28°08' W 015°25'0 0.0
2015-Mar-31 02:33N 28°08' W 015°25'0 0.0
2015-Mar-31 01:33N 28°08' W 015°25'0 0.0
2015-Mar-31 00:33N 28°08' W 015°25'0 0.0
2015-Mar-30 23:33N 28°08' W 015°25'0 0.0
2015-Mar-30 22:33N 28°08' W 015°25'0 0.0
2015-Mar-30 21:33N 28°08' W 015°25'0 0.0
2015-Mar-30 20:33N 28°08' W 015°25'0 0.0
2015-Mar-30 19:33N 28°08' W 015°25'0 0.0
2015-Mar-30 18:33N 28°08' W 015°25'0 0.0
2015-Mar-30 17:33N 28°08' W 015°25'0 0.0
2015-Mar-30 16:33N 28°08' W 015°25'0 0.0
2015-Mar-30 15:33N 28°08' W 015°25'0 0.0
2015-Mar-30 14:33N 28°08' W 015°25'0 0.0
2015-Mar-30 13:33N 28°08' W 015°25'0 0.0
2015-Mar-30 12:33N 28°08' W 015°25'0 0.0
2015-Mar-30 11:33N 28°08' W 015°25'0 0.0
2015-Mar-30 10:33N 28°08' W 015°25'0 0.0
2015-Mar-30 09:33N 28°08' W 015°25'0 0.0
2015-Mar-30 08:33N 28°08' W 015°25'0 0.0
2015-Mar-30 07:33N 28°08' W 015°25'0 0.0
2015-Mar-30 06:33N 28°08' W 015°25'0 0.0
2015-Mar-30 05:33N 28°08' W 015°25'0 0.0
2015-Mar-30 04:33N 28°08' W 015°25'0 0.0
2015-Mar-30 03:33N 28°08' W 015°25'0 0.0
2015-Mar-30 02:33N 28°08' W 015°25'0 0.0
2015-Mar-30 01:33N 28°08' W 015°25'0 0.0
2015-Mar-30 00:33N 28°08' W 015°25'0 0.0
2015-Mar-29 23:33N 28°08' W 015°25'0 0.0
2015-Mar-29 22:33N 28°08' W 015°25'0 0.0
2015-Mar-29 21:33N 28°08' W 015°25'0 0.0
2015-Mar-29 20:33N 28°08' W 015°25'1615.9
2015-Mar-29 19:33N 28°05' W 015°07'2020.1
2015-Mar-29 18:33N 28°03' W 014°45'2019.6
2015-Mar-29 17:32N 28°03' W 014°22'0 0.2
2015-Mar-29 16:32N 28°03' W 014°22'1310.9
2015-Mar-29 15:19N 28°02' W 014°37'1519.4
2015-Mar-29 14:33N 28°04' W 014°54'2019.5
2015-Mar-29 13:33N 28°06' W 015°16'8 8.4
2015-Mar-29 12:33N 28°08' W 015°25'0 0.0
2015-Mar-29 11:33N 28°08' W 015°25'0 0.0
2015-Mar-29 10:33N 28°08' W 015°25'2 2.4
2015-Mar-29 09:34N 28°10' W 015°23'1919.2
2015-Mar-29 08:34N 28°18' W 015°43'2019.9
2015-Mar-29 07:33N 28°26' W 016°04'9 8.5
2015-Mar-29 06:27N 28°28' W 016°15'0 0.0
2015-Mar-29 05:15N 28°28' W 016°15'0 0.0
2015-Mar-29 04:32N 28°28' W 016°15'0 0.0
2015-Mar-29 03:14N 28°28' W 016°15'0 0.0
2015-Mar-29 02:25N 28°28' W 016°15'0 0.0
2015-Mar-29 01:33N 28°28' W 016°15'0 0.0
2015-Mar-29 00:31N 28°28' W 016°15'0 0.0
2015-Mar-28 23:33N 28°28' W 016°15'6 5.2
2015-Mar-28 22:21N 28°27' W 016°08'1619.9
2015-Mar-28 21:33N 28°21' W 015°51'2020.1
2015-Mar-28 20:34N 28°14' W 015°30'7 6.6
2015-Mar-28 19:33N 28°10' W 015°24'6 5.8
2015-Mar-28 18:33N 28°08' W 015°18'2020.3
2015-Mar-28 17:33N 28°05' W 014°55'2020.2
2015-Mar-28 16:33N 28°02' W 014°32'9 8.2
2015-Mar-28 15:25N 28°03' W 014°22'0 0.0
2015-Mar-28 14:33N 28°03' W 014°22'8 7.3
2015-Mar-28 13:25N 28°02' W 014°31'1719.4
2015-Mar-28 12:33N 28°04' W 014°50'1919.1
2015-Mar-28 11:33N 28°07' W 015°11'1211.5
2015-Mar-28 10:34N 28°10' W 015°24'4 3.6
2015-Mar-28 09:33N 28°12' W 015°26'2019.5
2015-Mar-28 08:33N 28°19' W 015°47'2019.8
2015-Mar-28 07:33N 28°26' W 016°08'6 5.4
2015-Mar-28 06:29N 28°28' W 016°15'0 0.0
2015-Mar-28 05:33N 28°28' W 016°15'0 0.0
2015-Mar-28 04:30N 28°28' W 016°15'0 0.0
2015-Mar-28 03:30N 28°28' W 016°15'0 0.0
2015-Mar-28 02:33N 28°28' W 016°15'0 0.0
2015-Mar-28 01:31N 28°28' W 016°15'0 0.0
2015-Mar-28 00:29N 28°28' W 016°15'0 0.0
2015-Mar-27 23:33N 28°28' W 016°15'1 0.9
2015-Mar-27 22:33N 28°29' W 016°14'1818.4
2015-Mar-27 21:33N 28°22' W 015°55'2019.9
2015-Mar-27 20:33N 28°15' W 015°34'1010.0
2015-Mar-27 19:33N 28°10' W 015°24'6 5.6
2015-Mar-27 18:33N 28°08' W 015°18'2020.2
2015-Mar-27 17:33N 28°05' W 014°55'2020.0
2015-Mar-27 16:33N 28°02' W 014°33'10 8.5
2015-Mar-27 15:25N 28°03' W 014°22'8 3.6
2015-Mar-27 13:09N 28°02' W 014°31'1219.4
2015-Mar-27 12:33N 28°03' W 014°44'1919.3
2015-Mar-27 11:34N 28°06' W 015°06'1616.3
2015-Mar-27 10:33N 28°10' W 015°24'3 2.8
2015-Mar-27 09:33N 28°12' W 015°25'1919.4
2015-Mar-27 08:33N 28°19' W 015°46'2019.7
2015-Mar-27 07:32N 28°26' W 016°07'7 5.3
2015-Mar-27 06:14N 28°28' W 016°15'0 0.0
2015-Mar-26 23:33N 28°28' W 016°15'14 9.5
2015-Mar-26 22:03N 28°24' W 015°59'1019.8
2015-Mar-26 21:33N 28°20' W 015°49'2019.8
2015-Mar-26 20:33N 28°13' W 015°28'5 4.9
2015-Mar-26 19:33N 28°10' W 015°24'2 2.2
2015-Mar-26 18:33N 28°12' W 015°24'2019.4
2015-Mar-26 17:33N 28°19' W 015°45'1919.6
2015-Mar-26 16:33N 28°26' W 016°06'8 7.1
2015-Mar-26 15:23N 28°28' W 016°15'2111.4
2015-Mar-26 13:33N 28°22' W 015°52'2019.9
2015-Mar-26 12:33N 28°14' W 015°32'8 8.0
2015-Mar-26 11:33N 28°10' W 015°24'0 0.0
2015-Mar-26 10:33N 28°10' W 015°24'9 9.5
2015-Mar-26 09:34N 28°15' W 015°33'1919.4
2015-Mar-26 08:34N 28°22' W 015°54'20 3.9
2015-Mar-26 03:28N 28°28' W 016°15'0 0.0
2015-Mar-26 02:32N 28°28' W 016°15'0 0.0
2015-Mar-26 01:32N 28°28' W 016°15'0 0.0
2015-Mar-26 00:33N 28°28' W 016°15'0 0.0
2015-Mar-25 23:33N 28°28' W 016°15'2613.1
2015-Mar-25 21:33N 28°20' W 015°47'1919.3
2015-Mar-25 20:33N 28°13' W 015°26'4 3.6
2015-Mar-25 19:33N 28°10' W 015°24'6 6.0
2015-Mar-25 18:34N 28°07' W 015°18'2019.6
2015-Mar-25 17:33N 28°07' W 014°55'1919.5
2015-Mar-25 16:33N 28°02' W 014°34'1110.6
2015-Mar-25 15:33N 28°03' W 014°22'0 0.0
2015-Mar-25 14:33N 28°03' W 014°22'0 0.0
2015-Mar-25 13:33N 28°03' W 014°22'0 0.0
2015-Mar-25 12:33N 28°03' W 014°22'0 0.0
2015-Mar-25 11:32N 28°03' W 014°22'1110.5
2015-Mar-25 10:30N 28°02' W 014°34'1818.9
2015-Mar-25 09:33N 28°04' W 014°54'1919.2
2015-Mar-25 08:33N 28°06' W 015°16'8 8.4
2015-Mar-25 07:33N 28°08' W 015°25'0 0.0
2015-Mar-25 06:33N 28°08' W 015°25'0 0.0
2015-Mar-25 05:34N 28°08' W 015°25'0 0.0
2015-Mar-25 04:34N 28°08' W 015°25'0 0.0
2015-Mar-25 03:34N 28°08' W 015°25'0 0.0
2015-Mar-25 02:34N 28°08' W 015°25'0 0.0
2015-Mar-25 01:34N 28°08' W 015°25'0 0.0
2015-Mar-25 00:34N 28°08' W 015°25'0 0.0
2015-Mar-24 23:33N 28°08' W 015°25'0 0.0
2015-Mar-24 22:33N 28°08' W 015°25'0 0.0
2015-Mar-24 21:33N 28°08' W 015°25'0 0.0
2015-Mar-24 20:33N 28°08' W 015°25'0 0.0
2015-Mar-24 19:33N 28°08' W 015°25'7 7.3
2015-Mar-24 18:33N 28°07' W 015°17'1919.5
2015-Mar-24 17:33N 28°04' W 014°55'2019.7
2015-Mar-24 16:33N 28°02' W 014°33'10 9.5
2015-Mar-24 15:32N 28°03' W 014°22'0 0.0
2015-Mar-24 14:33N 28°03' W 014°22'0 0.0
2015-Mar-24 13:32N 28°03' W 014°22'0 0.0
2015-Mar-24 12:33N 28°03' W 014°22'0 0.0
2015-Mar-24 11:32N 28°03' W 014°22'8 8.3
2015-Mar-24 10:33N 28°02' W 014°31'1919.4
2015-Mar-24 09:33N 28°04' W 014°53'2019.7
2015-Mar-24 08:33N 28°07' W 015°15'9 9.0
2015-Mar-24 07:33N 28°08' W 015°25'0 0.0
2015-Mar-24 06:33N 28°08' W 015°25'0 0.0
2015-Mar-24 05:33N 28°08' W 015°25'0 0.0
2015-Mar-24 04:33N 28°08' W 015°25'0 0.0
2015-Mar-24 03:34N 28°08' W 015°25'0 0.0
2015-Mar-24 02:33N 28°08' W 015°25'0 0.0
2015-Mar-24 01:33N 28°08' W 015°25'0 0.0
2015-Mar-24 00:33N 28°08' W 015°25'0 0.0
2015-Mar-23 23:33N 28°08' W 015°25'0 0.0
2015-Mar-23 22:33N 28°08' W 015°25'0 0.0
2015-Mar-23 21:33N 28°08' W 015°25'0 0.0
2015-Mar-23 20:33N 28°08' W 015°25'0 0.0
2015-Mar-23 19:33N 28°08' W 015°25'0 0.0
2015-Mar-23 18:33N 28°08' W 015°25'0 0.0
2015-Mar-23 17:33N 28°08' W 015°25'0 0.0
2015-Mar-23 16:33N 28°08' W 015°25'0 0.0
2015-Mar-23 15:33N 28°08' W 015°25'0 0.0
2015-Mar-23 14:33N 28°08' W 015°25'0 0.0
2015-Mar-23 13:33N 28°08' W 015°25'0 0.0
2015-Mar-23 12:33N 28°08' W 015°25'0 0.0
2015-Mar-23 11:33N 28°08' W 015°25'0 0.0
2015-Mar-23 10:33N 28°08' W 015°25'0 0.0
2015-Mar-23 09:33N 28°08' W 015°25'0 0.0
2015-Mar-23 08:33N 28°08' W 015°25'0 0.0
2015-Mar-23 07:33N 28°08' W 015°25'0 0.0
2015-Mar-23 06:33N 28°08' W 015°25'0 0.0
2015-Mar-23 05:33N 28°08' W 015°25'0 0.0
2015-Mar-23 04:33N 28°08' W 015°25'0 0.0
2015-Mar-23 03:33N 28°08' W 015°25'0 0.0
2015-Mar-23 02:33N 28°08' W 015°25'0 0.0
2015-Mar-23 01:33N 28°08' W 015°25'0 0.0
2015-Mar-23 00:33N 28°08' W 015°25'0 0.0
2015-Mar-22 23:33N 28°08' W 015°25'0 0.0
2015-Mar-22 22:33N 28°08' W 015°25'1 0.5
2015-Mar-22 21:33N 28°08' W 015°24'1817.6
2015-Mar-22 20:34N 28°05' W 015°05'1919.1
2015-Mar-22 19:33N 28°03' W 014°43'1918.2
2015-Mar-22 18:31N 28°03' W 014°22'0 0.2
2015-Mar-22 17:33N 28°03' W 014°22'8 7.2
2015-Mar-22 16:27N 28°02' W 014°31'1820.3
2015-Mar-22 15:33N 28°04' W 014°51'2020.3
2015-Mar-22 14:33N 28°06' W 015°14'10 9.9
2015-Mar-22 13:33N 28°08' W 015°25'0 0.0
2015-Mar-22 12:33N 28°08' W 015°25'0 0.0
2015-Mar-22 11:33N 28°08' W 015°25'2 1.9
2015-Mar-22 10:33N 28°09' W 015°23'1919.5
2015-Mar-22 09:33N 28°18' W 015°43'2020.4
2015-Mar-22 08:33N 28°26' W 016°04'  
Track history (hours):
 
Tides and Currents Weather Stations Pressure Air Temp Water Temp Dewpoint Dewpoint Depression Visibility Wind Speed Wind Dir Waves Ship Positions

Volcan De Tamasite

Last reported at 2015-Apr-01 08:33 UTC. Time now 2015-Apr-01 09:29 UTC.
Position N 28°05' W 014°57'.

Length 141 m; draft 5.4 m.

Type: Passenger vessel. MMSI: 224093000.

Date/timePositionNaut miles runAvg speedWind from/ knotsBaromVisibWave heightAir tempDewpointWater temp
2015-Apr-01 08:33N 28°05' W 014°57'1919.4
2015-Apr-01 07:33N 28°07' W 015°19'6 5.6
2015-Apr-01 06:34N 28°08' W 015°25'0 0.0
2015-Apr-01 05:33N 28°08' W 015°25'0 0.0
2015-Apr-01 04:33N 28°08' W 015°25'0 0.0
2015-Apr-01 03:33N 28°08' W 015°25'0 0.0
2015-Apr-01 02:33N 28°08' W 015°25'0 0.0
2015-Apr-01 01:33N 28°08' W 015°25'0 0.0
2015-Apr-01 00:33N 28°08' W 015°25'0 0.0
2015-Mar-31 23:33N 28°08' W 015°25'0 0.0
2015-Mar-31 22:34N 28°08' W 015°25'0 0.0
2015-Mar-31 21:33N 28°08' W 015°25'0 0.0
2015-Mar-31 20:34N 28°08' W 015°25'0 0.0
2015-Mar-31 19:34N 28°08' W 015°25'0 0.0
2015-Mar-31 18:33N 28°08' W 015°25'5 4.7
2015-Mar-31 17:33N 28°07' W 015°20'2020.1
2015-Mar-31 16:33N 28°05' W 014°57'2020.2
2015-Mar-31 15:33N 28°02' W 014°34'1111.2
2015-Mar-31 14:33N 28°03' W 014°22'0 0.0
2015-Mar-31 13:33N 28°03' W 014°22'0 0.0
2015-Mar-31 12:33N 28°03' W 014°22'0 0.0
2015-Mar-31 11:33N 28°03' W 014°22'0 0.0
2015-Mar-31 10:33N 28°03' W 014°22'10 9.6
2015-Mar-31 09:33N 28°02' W 014°33'1919.2
2015-Mar-31 08:34N 28°04' W 014°54'1919.0
2015-Mar-31 07:33N 28°06' W 015°16'8 8.3
2015-Mar-31 06:34N 28°08' W 015°25'0 0.0
2015-Mar-31 05:33N 28°08' W 015°25'0 0.0
2015-Mar-31 04:33N 28°08' W 015°25'0 0.0
2015-Mar-31 03:33N 28°08' W 015°25'0 0.0
2015-Mar-31 02:33N 28°08' W 015°25'0 0.0
2015-Mar-31 01:33N 28°08' W 015°25'0 0.0
2015-Mar-31 00:33N 28°08' W 015°25'0 0.0
2015-Mar-30 23:33N 28°08' W 015°25'0 0.0
2015-Mar-30 22:33N 28°08' W 015°25'0 0.0
2015-Mar-30 21:33N 28°08' W 015°25'0 0.0
2015-Mar-30 20:33N 28°08' W 015°25'0 0.0
2015-Mar-30 19:33N 28°08' W 015°25'0 0.0
2015-Mar-30 18:33N 28°08' W 015°25'0 0.0
2015-Mar-30 17:33N 28°08' W 015°25'0 0.0
2015-Mar-30 16:33N 28°08' W 015°25'0 0.0
2015-Mar-30 15:33N 28°08' W 015°25'0 0.0
2015-Mar-30 14:33N 28°08' W 015°25'0 0.0
2015-Mar-30 13:33N 28°08' W 015°25'0 0.0
2015-Mar-30 12:33N 28°08' W 015°25'0 0.0
2015-Mar-30 11:33N 28°08' W 015°25'0 0.0
2015-Mar-30 10:33N 28°08' W 015°25'0 0.0
2015-Mar-30 09:33N 28°08' W 015°25'0 0.0
2015-Mar-30 08:33N 28°08' W 015°25'0 0.0
2015-Mar-30 07:33N 28°08' W 015°25'0 0.0
2015-Mar-30 06:33N 28°08' W 015°25'0 0.0
2015-Mar-30 05:33N 28°08' W 015°25'0 0.0
2015-Mar-30 04:33N 28°08' W 015°25'0 0.0
2015-Mar-30 03:33N 28°08' W 015°25'0 0.0
2015-Mar-30 02:33N 28°08' W 015°25'0 0.0
2015-Mar-30 01:33N 28°08' W 015°25'0 0.0
2015-Mar-30 00:33N 28°08' W 015°25'0 0.0
2015-Mar-29 23:33N 28°08' W 015°25'0 0.0
2015-Mar-29 22:33N 28°08' W 015°25'0 0.0
2015-Mar-29 21:33N 28°08' W 015°25'0 0.0
2015-Mar-29 20:33N 28°08' W 015°25'1615.9
2015-Mar-29 19:33N 28°05' W 015°07'2020.1
2015-Mar-29 18:33N 28°03' W 014°45'2019.6
2015-Mar-29 17:32N 28°03' W 014°22'0 0.2
2015-Mar-29 16:32N 28°03' W 014°22'1310.9
2015-Mar-29 15:19N 28°02' W 014°37'1519.4
2015-Mar-29 14:33N 28°04' W 014°54'2019.5
2015-Mar-29 13:33N 28°06' W 015°16'8 8.4
2015-Mar-29 12:33N 28°08' W 015°25'0 0.0
2015-Mar-29 11:33N 28°08' W 015°25'0 0.0
2015-Mar-29 10:33N 28°08' W 015°25'2 2.4
2015-Mar-29 09:34N 28°10' W 015°23'1919.2
2015-Mar-29 08:34N 28°18' W 015°43'2019.9
2015-Mar-29 07:33N 28°26' W 016°04'9 8.5
2015-Mar-29 06:27N 28°28' W 016°15'0 0.0
2015-Mar-29 05:15N 28°28' W 016°15'0 0.0
2015-Mar-29 04:32N 28°28' W 016°15'0 0.0
2015-Mar-29 03:14N 28°28' W 016°15'0 0.0
2015-Mar-29 02:25N 28°28' W 016°15'0 0.0
2015-Mar-29 01:33N 28°28' W 016°15'0 0.0
2015-Mar-29 00:31N 28°28' W 016°15'0 0.0
2015-Mar-28 23:33N 28°28' W 016°15'6 5.2
2015-Mar-28 22:21N 28°27' W 016°08'1619.9
2015-Mar-28 21:33N 28°21' W 015°51'2020.1
2015-Mar-28 20:34N 28°14' W 015°30'7 6.6
2015-Mar-28 19:33N 28°10' W 015°24'6 5.8
2015-Mar-28 18:33N 28°08' W 015°18'2020.3
2015-Mar-28 17:33N 28°05' W 014°55'2020.2
2015-Mar-28 16:33N 28°02' W 014°32'9 8.2
2015-Mar-28 15:25N 28°03' W 014°22'0 0.0
2015-Mar-28 14:33N 28°03' W 014°22'8 7.3
2015-Mar-28 13:25N 28°02' W 014°31'1719.4
2015-Mar-28 12:33N 28°04' W 014°50'1919.1
2015-Mar-28 11:33N 28°07' W 015°11'1211.5
2015-Mar-28 10:34N 28°10' W 015°24'4 3.6
2015-Mar-28 09:33N 28°12' W 015°26'2019.5
2015-Mar-28 08:33N 28°19' W 015°47'2019.8
2015-Mar-28 07:33N 28°26' W 016°08'6 5.4
2015-Mar-28 06:29N 28°28' W 016°15'0 0.0
2015-Mar-28 05:33N 28°28' W 016°15'0 0.0
2015-Mar-28 04:30N 28°28' W 016°15'0 0.0
2015-Mar-28 03:30N 28°28' W 016°15'0 0.0
2015-Mar-28 02:33N 28°28' W 016°15'0 0.0
2015-Mar-28 01:31N 28°28' W 016°15'0 0.0
2015-Mar-28 00:29N 28°28' W 016°15'0 0.0
2015-Mar-27 23:33N 28°28' W 016°15'1 0.9
2015-Mar-27 22:33N 28°29' W 016°14'1818.4
2015-Mar-27 21:33N 28°22' W 015°55'2019.9
2015-Mar-27 20:33N 28°15' W 015°34'1010.0
2015-Mar-27 19:33N 28°10' W 015°24'6 5.6
2015-Mar-27 18:33N 28°08' W 015°18'2020.2
2015-Mar-27 17:33N 28°05' W 014°55'2020.0
2015-Mar-27 16:33N 28°02' W 014°33'10 8.5
2015-Mar-27 15:25N 28°03' W 014°22'8 3.6
2015-Mar-27 13:09N 28°02' W 014°31'1219.4
2015-Mar-27 12:33N 28°03' W 014°44'1919.3
2015-Mar-27 11:34N 28°06' W 015°06'1616.3
2015-Mar-27 10:33N 28°10' W 015°24'3 2.8
2015-Mar-27 09:33N 28°12' W 015°25'1919.4
2015-Mar-27 08:33N 28°19' W 015°46'2019.7
2015-Mar-27 07:32N 28°26' W 016°07'7 5.3
2015-Mar-27 06:14N 28°28' W 016°15'0 0.0
2015-Mar-26 23:33N 28°28' W 016°15'14 9.5
2015-Mar-26 22:03N 28°24' W 015°59'1019.8
2015-Mar-26 21:33N 28°20' W 015°49'2019.8
2015-Mar-26 20:33N 28°13' W 015°28'5 4.9
2015-Mar-26 19:33N 28°10' W 015°24'2 2.2
2015-Mar-26 18:33N 28°12' W 015°24'2019.4
2015-Mar-26 17:33N 28°19' W 015°45'1919.6
2015-Mar-26 16:33N 28°26' W 016°06'8 7.1
2015-Mar-26 15:23N 28°28' W 016°15'2111.4
2015-Mar-26 13:33N 28°22' W 015°52'2019.9
2015-Mar-26 12:33N 28°14' W 015°32'8 8.0
2015-Mar-26 11:33N 28°10' W 015°24'0 0.0
2015-Mar-26 10:33N 28°10' W 015°24'9 9.5
2015-Mar-26 09:34N 28°15' W 015°33'1919.4
2015-Mar-26 08:34N 28°22' W 015°54'20 3.9
2015-Mar-26 03:28N 28°28' W 016°15'0 0.0
2015-Mar-26 02:32N 28°28' W 016°15'0 0.0
2015-Mar-26 01:32N 28°28' W 016°15'0 0.0
2015-Mar-26 00:33N 28°28' W 016°15'0 0.0
2015-Mar-25 23:33N 28°28' W 016°15'2613.1
2015-Mar-25 21:33N 28°20' W 015°47'1919.3
2015-Mar-25 20:33N 28°13' W 015°26'4 3.6
2015-Mar-25 19:33N 28°10' W 015°24'6 6.0
2015-Mar-25 18:34N 28°07' W 015°18'2019.6
2015-Mar-25 17:33N 28°07' W 014°55'1919.5
2015-Mar-25 16:33N 28°02' W 014°34'1110.6
2015-Mar-25 15:33N 28°03' W 014°22'0 0.0
2015-Mar-25 14:33N 28°03' W 014°22'0 0.0
2015-Mar-25 13:33N 28°03' W 014°22'0 0.0
2015-Mar-25 12:33N 28°03' W 014°22'0 0.0
2015-Mar-25 11:32N 28°03' W 014°22'1110.5
2015-Mar-25 10:30N 28°02' W 014°34'1818.9
2015-Mar-25 09:33N 28°04' W 014°54'1919.2
2015-Mar-25 08:33N 28°06' W 015°16'8 8.4
2015-Mar-25 07:33N 28°08' W 015°25'0 0.0
2015-Mar-25 06:33N 28°08' W 015°25'0 0.0
2015-Mar-25 05:34N 28°08' W 015°25'0 0.0
2015-Mar-25 04:34N 28°08' W 015°25'0 0.0
2015-Mar-25 03:34N 28°08' W 015°25'0 0.0
2015-Mar-25 02:34N 28°08' W 015°25'0 0.0
2015-Mar-25 01:34N 28°08' W 015°25'0 0.0
2015-Mar-25 00:34N 28°08' W 015°25'0 0.0
2015-Mar-24 23:33N 28°08' W 015°25'0 0.0
2015-Mar-24 22:33N 28°08' W 015°25'0 0.0
2015-Mar-24 21:33N 28°08' W 015°25'0 0.0
2015-Mar-24 20:33N 28°08' W 015°25'0 0.0
2015-Mar-24 19:33N 28°08' W 015°25'7 7.3
2015-Mar-24 18:33N 28°07' W 015°17'1919.5
2015-Mar-24 17:33N 28°04' W 014°55'2019.7
2015-Mar-24 16:33N 28°02' W 014°33'10 9.5
2015-Mar-24 15:32N 28°03' W 014°22'0 0.0
2015-Mar-24 14:33N 28°03' W 014°22'0 0.0
2015-Mar-24 13:32N 28°03' W 014°22'0 0.0
2015-Mar-24 12:33N 28°03' W 014°22'0 0.0
2015-Mar-24 11:32N 28°03' W 014°22'8 8.3
2015-Mar-24 10:33N 28°02' W 014°31'1919.4
2015-Mar-24 09:33N 28°04' W 014°53'2019.7
2015-Mar-24 08:33N 28°07' W 015°15'9 9.0
2015-Mar-24 07:33N 28°08' W 015°25'0 0.0
2015-Mar-24 06:33N 28°08' W 015°25'0 0.0
2015-Mar-24 05:33N 28°08' W 015°25'0 0.0
2015-Mar-24 04:33N 28°08' W 015°25'0 0.0
2015-Mar-24 03:34N 28°08' W 015°25'0 0.0
2015-Mar-24 02:33N 28°08' W 015°25'0 0.0
2015-Mar-24 01:33N 28°08' W 015°25'0 0.0
2015-Mar-24 00:33N 28°08' W 015°25'0 0.0
2015-Mar-23 23:33N 28°08' W 015°25'0 0.0
2015-Mar-23 22:33N 28°08' W 015°25'0 0.0
2015-Mar-23 21:33N 28°08' W 015°25'0 0.0
2015-Mar-23 20:33N 28°08' W 015°25'0 0.0
2015-Mar-23 19:33N 28°08' W 015°25'0 0.0
2015-Mar-23 18:33N 28°08' W 015°25'0 0.0
2015-Mar-23 17:33N 28°08' W 015°25'0 0.0
2015-Mar-23 16:33N 28°08' W 015°25'0 0.0
2015-Mar-23 15:33N 28°08' W 015°25'0 0.0
2015-Mar-23 14:33N 28°08' W 015°25'0 0.0
2015-Mar-23 13:33N 28°08' W 015°25'0 0.0
2015-Mar-23 12:33N 28°08' W 015°25'0 0.0
2015-Mar-23 11:33N 28°08' W 015°25'0 0.0
2015-Mar-23 10:33N 28°08' W 015°25'0 0.0
2015-Mar-23 09:33N 28°08' W 015°25'0 0.0
2015-Mar-23 08:33N 28°08' W 015°25'0 0.0
2015-Mar-23 07:33N 28°08' W 015°25'0 0.0
2015-Mar-23 06:33N 28°08' W 015°25'0 0.0
2015-Mar-23 05:33N 28°08' W 015°25'0 0.0
2015-Mar-23 04:33N 28°08' W 015°25'0 0.0
2015-Mar-23 03:33N 28°08' W 015°25'0 0.0
2015-Mar-23 02:33N 28°08' W 015°25'0 0.0
2015-Mar-23 01:33N 28°08' W 015°25'0 0.0
2015-Mar-23 00:33N 28°08' W 015°25'0 0.0
2015-Mar-22 23:33N 28°08' W 015°25'0 0.0
2015-Mar-22 22:33N 28°08' W 015°25'1 0.5
2015-Mar-22 21:33N 28°08' W 015°24'1817.6
2015-Mar-22 20:34N 28°05' W 015°05'1919.1
2015-Mar-22 19:33N 28°03' W 014°43'1918.2
2015-Mar-22 18:31N 28°03' W 014°22'0 0.2
2015-Mar-22 17:33N 28°03' W 014°22'8 7.2
2015-Mar-22 16:27N 28°02' W 014°31'1820.3
2015-Mar-22 15:33N 28°04' W 014°51'2020.3
2015-Mar-22 14:33N 28°06' W 015°14'10 9.9
2015-Mar-22 13:33N 28°08' W 015°25'0 0.0
2015-Mar-22 12:33N 28°08' W 015°25'0 0.0
2015-Mar-22 11:33N 28°08' W 015°25'2 1.9
2015-Mar-22 10:33N 28°09' W 015°23'1919.5
2015-Mar-22 09:33N 28°18' W 015°43'2020.4
2015-Mar-22 08:33N 28°26' W 016°04'  

Dump ship's entire track history